Time;durP1;ratioP1;P1;durP2;ratioP2;P2;SDS_P1;SDS_P2;PMS_P1;PMS_P2;Temp;Humidity;BMP_temperature;BMP_pressure;BME280_temperature;BME280_humidity;BME280_pressure;Samples;Min_cycle;Max_cycle;Signal;HPM_P1;HPM_P2
2021/04/18 00:02:06;;;;;;;;;;;;;;;11.50;58.08;99423.94;5055660;28;19913;-77
2021/04/18 00:04:31;;;;;;;;;;;;;;;11.40;56.69;99415.50;5055658;28;19921;-77
2021/04/18 00:06:56;;;;;;;;;;;;;;;11.37;56.92;99400.81;5055626;28;19995;-74
2021/04/18 00:09:22;;;;;;;;;;;;;;;11.42;57.62;99408.19;5055641;28;20350;-78
2021/04/18 00:11:47;;;;;;;;;;;;;;;11.39;56.64;99406.75;5055654;28;19921;-75
2021/04/18 00:14:12;;;;;;;;;;;;;;;11.40;56.72;99397.81;5055587;28;19960;-76
2021/04/18 00:16:38;;;;;;;;;;;;;;;11.43;56.88;99402.72;5055446;28;19920;-76
2021/04/18 00:19:05;;;;;;;;;;;;;;;11.42;56.79;99395.78;5055649;28;20346;-78
2021/04/18 00:21:30;;;;;;;;;;;;;;;11.41;56.98;99399.44;5054339;28;19951;-77
2021/04/18 00:23:55;;;;;;;;;;;;;;;11.44;56.00;99404.34;5054500;28;19924;-76
2021/04/18 00:26:21;;;;;;;;;;;;;;;11.40;56.25;99399.63;5055563;28;20011;-75
2021/04/18 00:28:46;;;;;;;;;;;;;;;11.39;56.48;99393.53;5055344;28;19963;-75
2021/04/18 00:31:11;;;;;;;;;;;;;;;11.38;57.00;99397.19;5055481;28;20381;-75
2021/04/18 00:33:36;;;;;;;;;;;;;;;11.39;58.33;99390.06;5055207;28;19913;-77
2021/04/18 00:36:02;;;;;;;;;;;;;;;11.39;58.32;99387.41;5055331;28;19929;-76
2021/04/18 00:38:28;;;;;;;;;;;;;;;11.37;58.02;99392.06;5054020;28;20319;-77
2021/04/18 00:40:53;;;;;;;;;;;;;;;11.38;59.05;99386.59;5055254;28;19966;-76
2021/04/18 00:43:18;;;;;;;;;;;;;;;11.41;57.01;99390.69;5055224;28;20239;-76
2021/04/18 00:45:44;;;;;;;;;;;;;;;11.38;58.33;99394.53;5070649;28;19913;-75
2021/04/18 00:48:09;;;;;;;;;;;;;;;11.40;57.56;99395.16;5055198;28;19916;-75
2021/04/18 00:50:35;;;;;;;;;;;;;;;11.45;56.06;99398.06;5058540;28;19943;-77
2021/04/18 00:53:05;;;;;;;;;;;;;;;11.41;57.74;99393.34;5059189;28;19912;-77
2021/04/18 00:55:32;;;;;;;;;;;;;;;11.39;58.07;99401.47;5059198;28;19984;-77
2021/04/18 00:57:57;;;;;;;;;;;;;;;11.41;57.13;99401.28;5059144;28;20239;-74
2021/04/18 01:00:23;;;;;;;;;;;;;;;11.38;57.62;99399.00;5074699;28;19913;-78
2021/04/18 01:02:49;;;;;;;;;;;;;;;11.34;57.36;99403.84;5057865;28;20003;-76
2021/04/18 01:05:14;;;;;;;;;;;;;;;11.34;56.97;99403.84;5058980;28;20358;-76
2021/04/18 01:07:40;;;;;;;;;;;;;;;11.37;58.14;99403.47;5058875;28;20308;-75
2021/04/18 01:10:06;;;;;;;;;;;;;;;11.42;57.71;99400.25;5059195;28;19978;-76
2021/04/18 01:12:32;;;;;;;;;;;;;;;11.47;57.21;99403.16;5057583;28;20342;-76
2021/04/18 01:14:57;;;;;;;;;;;;;;;11.49;56.47;99406.44;5058875;28;19913;-76
2021/04/18 01:17:23;;;;;;;;;;;;;;;11.48;57.21;99415.38;5058890;28;19912;-75
2021/04/18 01:19:48;;;;;;;;;;;;;;;11.47;56.68;99403.16;5058777;28;20007;-78
2021/04/18 01:22:13;;;;;;;;;;;;;;;11.46;56.50;99398.88;5074191;28;19928;-77
2021/04/18 01:24:39;;;;;;;;;;;;;;;11.47;56.60;99395.22;5058615;28;19913;-76
2021/04/18 01:27:05;;;;;;;;;;;;;;;11.47;57.26;99403.16;5058727;28;19917;-77
2021/04/18 01:29:30;;;;;;;;;;;;;;;11.42;57.32;99394.97;5058551;28;19912;-78
2021/04/18 01:31:55;;;;;;;;;;;;;;;11.40;57.16;99405.75;5074024;28;19920;-76
2021/04/18 01:34:21;;;;;;;;;;;;;;;11.42;57.05;99392.34;5074047;28;20311;-75
2021/04/18 01:36:46;;;;;;;;;;;;;;;11.41;58.09;99396.81;5074023;28;19916;-77
2021/04/18 01:39:13;;;;;;;;;;;;;;;11.42;57.94;99392.34;5058420;28;19916;-75
2021/04/18 01:41:38;;;;;;;;;;;;;;;11.44;57.03;99398.25;5058328;28;19919;-76
2021/04/18 01:44:05;;;;;;;;;;;;;;;11.46;57.30;99381.19;5058178;28;19914;-76
2021/04/18 01:46:30;;;;;;;;;;;;;;;11.45;57.03;99381.38;5057129;28;20011;-77
2021/04/18 01:48:55;;;;;;;;;;;;;;;11.44;58.92;99380.56;5057142;28;20003;-77
2021/04/18 01:51:24;;;;;;;;;;;;;;;11.42;58.06;99382.56;5057132;28;20345;-77
2021/04/18 01:53:49;;;;;;;;;;;;;;;11.40;56.82;99371.38;5058372;28;20247;-78
2021/04/18 01:56:15;;;;;;;;;;;;;;;11.42;57.92;99379.13;5058136;28;19913;-76
2021/04/18 01:58:40;;;;;;;;;;;;;;;11.43;57.20;99373.63;5073410;28;19916;-76
2021/04/18 02:01:05;;;;;;;;;;;;;;;11.48;57.27;99369.63;5057630;28;19919;-77
2021/04/18 02:03:30;;;;;;;;;;;;;;;11.51;57.96;99370.06;5057711;28;19913;-77
2021/04/18 02:05:56;;;;;;;;;;;;;;;11.55;57.07;99373.16;5057830;28;19920;-77
2021/04/18 02:08:21;;;;;;;;;;;;;;;11.58;56.92;99375.41;5057777;28;19965;-77
2021/04/18 02:10:46;;;;;;;;;;;;;;;11.60;56.77;99374.22;5057600;28;19913;-76
2021/04/18 02:13:12;;;;;;;;;;;;;;;11.61;57.06;99369.75;5073486;28;19916;-78
2021/04/18 02:15:37;;;;;;;;;;;;;;;11.59;56.42;99375.22;5057467;28;19919;-76
2021/04/18 02:18:02;;;;;;;;;;;;;;;11.52;56.54;99371.69;5057564;28;19950;-77
2021/04/18 02:20:27;;;;;;;;;;;;;;;11.46;58.07;99364.50;5057713;28;20239;-76
2021/04/18 02:22:52;;;;;;;;;;;;;;;11.39;57.57;99363.63;5057305;28;20019;-75
2021/04/18 02:25:18;;;;;;;;;;;;;;;11.36;57.31;99353.44;5057499;28;19916;-77
2021/04/18 02:27:43;;;;;;;;;;;;;;;11.40;57.23;99360.81;5057466;28;20031;-77
2021/04/18 02:30:09;;;;;;;;;;;;;;;11.40;57.90;99360.81;5057397;28;19948;-77
2021/04/18 02:32:34;;;;;;;;;;;;;;;11.39;58.67;99367.09;5057365;28;19935;-76
2021/04/18 02:35:01;;;;;;;;;;;;;;;11.41;58.38;99370.38;5056255;28;20304;-75
2021/04/18 02:37:26;;;;;;;;;;;;;;;11.42;57.98;99377.28;5057327;28;20282;-78
2021/04/18 02:39:51;;;;;;;;;;;;;;;11.41;57.40;99372.19;5057073;28;19921;-78
2021/04/18 02:42:17;;;;;;;;;;;;;;;11.38;57.96;99377.84;5072870;28;19916;-77
2021/04/18 02:44:42;;;;;;;;;;;;;;;11.29;59.11;99387.72;5056968;28;19913;-76
2021/04/18 02:47:08;;;;;;;;;;;;;;;11.31;58.04;99385.72;5057152;28;19921;-78
2021/04/18 02:49:33;;;;;;;;;;;;;;;11.33;57.75;99399.56;5057125;28;19913;-77
2021/04/18 02:51:58;;;;;;;;;;;;;;;11.34;57.89;99398.56;5057035;28;19917;-77
2021/04/18 02:54:23;;;;;;;;;;;;;;;11.36;58.61;99393.91;5072459;28;20333;-76
2021/04/18 02:56:49;;;;;;;;;;;;;;;11.39;57.44;99393.53;5056813;28;20304;-77
2021/04/18 02:59:14;;;;;;;;;;;;;;;11.40;57.40;99389.06;5056900;28;20304;-78
2021/04/18 03:01:39;;;;;;;;;;;;;;;11.41;58.46;99385.41;5056656;28;19912;-76
2021/04/18 03:04:05;;;;;;;;;;;;;;;11.40;57.52;99383.78;5056907;28;19919;-76
2021/04/18 03:06:30;;;;;;;;;;;;;;;11.39;57.58;99379.50;5057584;28;20208;-77
2021/04/18 03:08:55;;;;;;;;;;;;;;;11.33;57.55;99377.59;5072620;28;19942;-77
2021/04/18 03:11:21;;;;;;;;;;;;;;;11.26;58.02;99380.16;5071674;28;19913;-76
2021/04/18 03:13:47;;;;;;;;;;;;;;;11.24;57.27;99378.72;5056360;28;20361;-75
2021/04/18 03:16:12;;;;;;;;;;;;;;;11.16;57.70;99379.66;5056518;28;19974;-74
2021/04/18 03:18:37;;;;;;;;;;;;;;;11.08;58.76;99385.00;5056366;28;19916;-75
2021/04/18 03:21:03;;;;;;;;;;;;;;;11.01;58.91;99392.03;5056808;28;20031;-75
2021/04/18 03:23:28;;;;;;;;;;;;;;;10.96;60.00;99392.59;5071898;28;19920;-76
2021/04/18 03:25:53;;;;;;;;;;;;;;;10.98;58.41;99395.88;5056198;28;19917;-77
2021/04/18 03:28:19;;;;;;;;;;;;;;;11.00;60.00;99398.31;5056478;28;20351;-74
2021/04/18 03:30:44;;;;;;;;;;;;;;;10.91;62.06;99394.13;5056081;28;19919;-75
2021/04/18 03:33:09;;;;;;;;;;;;;;;10.94;58.57;99385.84;5056258;28;20315;-76
2021/04/18 03:35:35;;;;;;;;;;;;;;;10.96;59.14;99389.13;5055062;28;19913;-75
2021/04/18 03:38:02;;;;;;;;;;;;;;;10.95;60.12;99390.94;5056084;28;20337;-77
2021/04/18 03:40:28;;;;;;;;;;;;;;;10.98;59.48;99389.75;5056084;28;19963;-76
2021/04/18 03:42:53;;;;;;;;;;;;;;;11.00;59.02;99382.47;5055873;28;20314;-78
2021/04/18 03:45:18;;;;;;;;;;;;;;;11.01;58.39;99384.94;5056103;28;19913;-77
2021/04/18 03:47:45;;;;;;;;;;;;;;;11.02;58.23;99385.75;5055939;28;20004;-76
2021/04/18 03:50:10;;;;;;;;;;;;;;;10.99;58.18;99391.41;5056073;28;19913;-76
2021/04/18 03:52:36;;;;;;;;;;;;;;;10.97;58.99;99391.59;5071206;28;20053;-75
2021/04/18 03:55:01;;;;;;;;;;;;;;;11.01;59.14;99392.03;5055837;28;20323;-78
2021/04/18 03:57:26;;;;;;;;;;;;;;;11.00;58.71;99393.84;5055720;28;19959;-78
2021/04/18 03:59:52;;;;;;;;;;;;;;;10.99;58.44;99386.94;5054519;28;19916;-77
2021/04/18 04:02:19;;;;;;;;;;;;;;;11.01;57.80;99395.50;5055132;28;20403;-78
2021/04/18 04:04:44;;;;;;;;;;;;;;;11.01;58.34;99390.22;5055517;28;20342;-76
2021/04/18 04:07:09;;;;;;;;;;;;;;;11.02;58.82;99394.50;5055597;28;19963;-75
2021/04/18 04:09:35;;;;;;;;;;;;;;;11.01;58.50;99379.66;5063048;22;19951;-74
2021/04/18 04:12:00;;;;;;;;;;;;;;;11.06;58.08;99392.28;5054407;28;20331;-77
2021/04/18 04:14:25;;;;;;;;;;;;;;;11.07;58.76;99396.56;5054249;28;20327;-77
2021/04/18 04:16:51;;;;;;;;;;;;;;;11.07;57.41;99396.56;5037681;28;19913;-76
2021/04/18 04:19:16;;;;;;;;;;;;;;;11.05;57.92;99391.47;5055349;28;20319;-77
2021/04/18 04:21:42;;;;;;;;;;;;;;;11.01;58.46;99392.84;5055237;28;20007;-77
2021/04/18 04:24:08;;;;;;;;;;;;;;;11.02;58.23;99391.84;5055196;28;19969;-77
2021/04/18 04:26:33;;;;;;;;;;;;;;;11.03;57.22;99403.22;5055246;28;19913;-76
2021/04/18 04:28:58;;;;;;;;;;;;;;;11.01;58.35;99397.31;5037558;28;20311;-77
2021/04/18 04:31:24;;;;;;;;;;;;;;;10.96;58.39;99397.03;5054198;28;19913;-76
2021/04/18 04:33:49;;;;;;;;;;;;;;;10.96;58.23;99392.59;5055134;28;19913;-74
2021/04/18 04:36:14;;;;;;;;;;;;;;;10.99;58.42;99386.13;5037484;28;19920;-76
2021/04/18 04:38:39;;;;;;;;;;;;;;;11.00;57.44;99377.19;5054972;28;19921;-74
2021/04/18 04:41:05;;;;;;;;;;;;;;;10.93;58.20;99366.53;5055115;28;19912;-76
2021/04/18 04:43:32;;;;;;;;;;;;;;;10.97;57.91;99365.16;5055036;28;19912;-75
2021/04/18 04:45:57;;;;;;;;;;;;;;;11.07;57.65;99365.69;5037081;28;20319;-76
2021/04/18 04:48:23;;;;;;;;;;;;;;;11.16;57.88;99365.63;5054019;28;19920;-75
2021/04/18 04:50:48;;;;;;;;;;;;;;;11.19;57.67;99373.16;5055301;28;19970;-77
2021/04/18 04:53:14;;;;;;;;;;;;;;;11.22;57.25;99380.72;5055157;28;19952;-76
2021/04/18 04:55:41;;;;;;;;;;;;;;;11.20;57.50;99380.09;5053754;28;19962;-77
2021/04/18 04:58:06;;;;;;;;;;;;;;;11.18;57.28;99376.81;5054834;28;19917;-76
2021/04/18 05:00:32;;;;;;;;;;;;;;;11.19;57.68;99370.53;5054851;28;19936;-77
2021/04/18 05:02:57;;;;;;;;;;;;;;;11.27;57.32;99362.47;5054749;28;19955;-75
2021/04/18 05:05:22;;;;;;;;;;;;;;;11.32;57.40;99368.03;5055092;28;19983;-77
2021/04/18 05:07:47;;;;;;;;;;;;;;;11.35;57.56;99349.16;5054720;28;20242;-75
2021/04/18 05:10:13;;;;;;;;;;;;;;;11.38;57.48;99348.78;5037145;28;20016;-78
2021/04/18 05:12:38;;;;;;;;;;;;;;;11.42;57.69;99342.09;5054838;28;19913;-77
2021/04/18 05:15:04;;;;;;;;;;;;;;;11.41;57.24;99348.41;5054881;28;20245;-77
2021/04/18 05:17:29;;;;;;;;;;;;;;;11.47;57.34;99345.00;5054743;28;19923;-75
2021/04/18 05:19:54;;;;;;;;;;;;;;;11.54;57.51;99337.94;5054768;28;20064;-75
2021/04/18 05:22:20;;;;;;;;;;;;;;;11.56;57.60;99343.88;5054890;28;19913;-77
2021/04/18 05:24:45;;;;;;;;;;;;;;;11.59;57.26;99337.38;5054774;28;19912;-78
2021/04/18 05:27:11;;;;;;;;;;;;;;;11.64;56.66;99337.63;5054995;28;19948;-78
2021/04/18 05:29:36;;;;;;;;;;;;;;;11.65;57.02;99350.66;5054686;28;19920;-75
2021/04/18 05:32:01;;;;;;;;;;;;;;;11.64;55.32;99340.28;5054738;28;19962;-77
2021/04/18 05:34:27;;;;;;;;;;;;;;;11.56;57.51;99335.94;5054936;28;19943;-76
2021/04/18 05:36:52;;;;;;;;;;;;;;;11.59;57.30;99340.03;5057115;28;19916;-78
2021/04/18 05:39:17;;;;;;;;;;;;;;;11.61;58.04;99333.53;5058283;28;19967;-76
2021/04/18 05:41:42;;;;;;;;;;;;;;;11.66;56.25;99325.84;5058184;28;19988;-76
2021/04/18 05:44:13;;;;;;;;;;;;;;;11.72;55.69;99335.69;5040500;28;19966;-77
2021/04/18 05:46:38;;;;;;;;;;;;;;;11.73;56.92;99342.59;5058090;28;19955;-77
2021/04/18 05:49:04;;;;;;;;;;;;;;;11.74;57.51;99333.66;5057212;28;19921;-77
2021/04/18 05:51:29;;;;;;;;;;;;;;;11.72;58.38;99326.91;5058871;28;19991;-76
2021/04/18 05:53:54;;;;;;;;;;;;;;;11.77;55.72;99327.16;5058580;28;20254;-76
2021/04/18 05:56:19;;;;;;;;;;;;;;;11.72;57.54;99324.28;5058461;28;19970;-77
2021/04/18 05:58:45;;;;;;;;;;;;;;;11.75;56.05;99318.59;5057912;28;19917;-77
2021/04/18 06:01:10;;;;;;;;;;;;;;;11.78;58.09;99320.91;5058128;28;19913;-78
2021/04/18 06:03:35;;;;;;;;;;;;;;;11.86;56.09;99312.81;5040136;28;20011;-76
2021/04/18 06:06:00;;;;;;;;;;;;;;;11.88;56.89;99325.88;5056979;28;19920;-77
2021/04/18 06:08:26;;;;;;;;;;;;;;;11.95;56.28;99326.75;5057660;28;20345;-75
2021/04/18 06:10:51;;;;;;;;;;;;;;;11.97;56.92;99320.25;5057749;28;19921;-76
2021/04/18 06:13:16;;;;;;;;;;;;;;;12.11;56.67;99320.34;5040003;28;19919;-77
2021/04/18 06:15:42;;;;;;;;;;;;;;;12.21;56.62;99318.19;5057681;28;20220;-76
2021/04/18 06:18:07;;;;;;;;;;;;;;;12.31;56.01;99313.34;5039845;28;20285;-77
2021/04/18 06:20:32;;;;;;;;;;;;;;;12.37;56.16;99310.75;5057503;28;19916;-75
2021/04/18 06:22:57;;;;;;;;;;;;;;;12.44;55.91;99296.72;5056354;28;19955;-77
2021/04/18 06:25:23;;;;;;;;;;;;;;;12.48;55.76;99312.03;5057512;28;19913;-75
2021/04/18 06:27:48;;;;;;;;;;;;;;;12.52;54.89;99320.41;5039606;28;20003;-75
2021/04/18 06:30:14;;;;;;;;;;;;;;;12.54;54.83;99319.19;5057731;28;19920;-76
2021/04/18 06:32:39;;;;;;;;;;;;;;;12.55;55.18;99326.13;5057362;28;19919;-78
2021/04/18 06:35:06;;;;;;;;;;;;;;;12.63;55.03;99328.63;5056238;28;20354;-77
2021/04/18 06:37:31;;;;;;;;;;;;;;;12.67;55.21;99334.34;5057236;28;19920;-76
2021/04/18 06:39:56;;;;;;;;;;;;;;;12.75;54.80;99343.97;5057176;28;19912;-78
2021/04/18 06:42:22;;;;;;;;;;;;;;;12.82;54.94;99340.34;5039562;28;19919;-78
2021/04/18 06:44:48;;;;;;;;;;;;;;;12.85;54.50;99342.59;5039236;28;19919;-76
2021/04/18 06:47:14;;;;;;;;;;;;;;;12.85;54.71;99350.53;5055895;28;20465;-75
2021/04/18 06:49:39;;;;;;;;;;;;;;;12.84;54.35;99353.38;5056949;28;19970;-77
2021/04/18 06:52:06;;;;;;;;;;;;;;;12.83;54.12;99351.75;5057286;28;19913;-78
2021/04/18 06:54:31;;;;;;;;;;;;;;;12.80;55.11;99339.72;5039317;28;19913;-75
2021/04/18 06:56:56;;;;;;;;;;;;;;;12.89;54.62;99343.00;5056883;28;20299;-76
2021/04/18 06:59:22;;;;;;;;;;;;;;;13.02;54.46;99338.59;5056879;28;19917;-77
